• Join FlightAware (Why Join?)
  • Login
  • US Flag 
06:26PM EDT


 

Airport Tracker/Info


-or-


 

Live Flight TrackerFlight Track Log ✈ SLI159 ✈ 21-May-2013 ✈ MMCL / CUL - MMMX / MEX

Flight Track Log - Related Links

Times and Time Zones

All times are in EDT time to prevent confusion due to time zone crossing. See the SLI159 flight status page for this flight to view local times or setup timezone preferences in your user account.

Time Position Orientation Groundspeed Altitude Reporting Facility
EDT Latitude Longitude Course Direction KTS MPH feet Rate Location/Type
03:50PM 24.5998 -107.1934 123° Southeast  Level Estimated
03:51PM 24.5448 -107.0998 123° Southeast  Level Estimated
03:52PM 24.4897 -107.0063 123° Southeast  Level Estimated
03:53PM 24.4345 -106.9129 123° Southeast  Level Estimated
03:54PM 24.3794 -106.8195 123° Southeast  Level Estimated
03:55PM 24.3241 -106.7263 123° Southeast  Level Estimated
03:56PM 24.2688 -106.6331 123° Southeast  Level Estimated
03:57PM 24.2134 -106.5400 123° Southeast  Level Estimated
03:58PM 24.1580 -106.4469 123° Southeast  Level Estimated
03:59PM 24.1025 -106.3540 123° Southeast  Level Estimated
04:00PM 24.0469 -106.2611 123° Southeast  Level Estimated
04:01PM 23.9913 -106.1684 123° Southeast  Level Estimated
04:02PM 23.9357 -106.0757 123° Southeast  Level Estimated
04:03PM 23.8800 -105.9830 123° Southeast  Level Estimated
04:04PM 23.8242 -105.8905 123° Southeast  Level Estimated
04:05PM 23.7684 -105.7980 123° Southeast  Level Estimated
04:06PM 23.7125 -105.7057 123° Southeast  Level Estimated
04:07PM 23.6566 -105.6133 123° Southeast  Level Estimated
04:08PM 23.6006 -105.5211 124° Southeast  Level Estimated
04:09PM 23.5446 -105.4290 124° Southeast  Level Estimated
04:10PM 23.4885 -105.3369 124° Southeast  Level Estimated
04:11PM 23.4323 -105.2449 124° Southeast  Level Estimated
04:12PM 23.3761 -105.1530 124° Southeast  Level Estimated
04:13PM 23.3199 -105.0611 124° Southeast  Level Estimated
04:14PM 23.2636 -104.9694 124° Southeast  Level Estimated
04:15PM 23.2072 -104.8777 124° Southeast  Level Estimated
04:16PM 23.1508 -104.7861 124° Southeast  Level Estimated
04:17PM 23.0943 -104.6946 124° Southeast  Level Estimated
04:18PM 23.0378 -104.6031 124° Southeast  Level Estimated
04:19PM 22.9813 -104.5118 124° Southeast  Level Estimated
04:20PM 22.9246 -104.4205 124° Southeast  Level Estimated
04:21PM 22.8679 -104.3292 124° Southeast  Level Estimated
04:22PM 22.8112 -104.2381 124° Southeast  Level Estimated
04:23PM 22.7544 -104.1470 124° Southeast  Level Estimated
04:24PM 22.6976 -104.0560 124° Southeast  Level Estimated
04:25PM 22.6407 -103.9651 124° Southeast  Level Estimated
04:26PM 22.5838 -103.8743 124° Southeast  Level Estimated
04:27PM 22.5268 -103.7835 124° Southeast  Level Estimated
04:28PM 22.4697 -103.6928 124° Southeast  Level Estimated
04:29PM 22.4127 -103.6022 124° Southeast  Level Estimated
04:30PM 22.3555 -103.5117 124° Southeast  Level Estimated
04:31PM 22.2983 -103.4212 124° Southeast  Level Estimated
04:32PM 22.2411 -103.3308 124° Southeast  Level Estimated
04:33PM 22.1838 -103.2405 124° Southeast  Level Estimated
04:34PM 22.1265 -103.1502 124° Southeast  Level Estimated
04:35PM 22.0691 -103.0601 124° Southeast  Level Estimated
04:36PM 22.0116 -102.9700 125° Southeast  Level Estimated
04:37PM 21.9541 -102.8799 125° Southeast  Level Estimated
04:38PM 21.8966 -102.7900 125° Southeast  Level Estimated
04:39PM 21.8390 -102.7001 125° Southeast  Level Estimated
04:40PM 21.7814 -102.6103 125° Southeast  Level Estimated
04:41PM 21.7237 -102.5206 125° Southeast  Level Estimated
04:42PM 21.6660 -102.4309 125° Southeast  Level Estimated
04:43PM 21.6082 -102.3413 125° Southeast  Level Estimated
04:44PM 21.5504 -102.2518 125° Southeast  Level Estimated
04:45PM 21.4925 -102.1623 125° Southeast  Level Estimated
04:46PM 21.4346 -102.0730 125° Southeast  Level Estimated
04:47PM 21.3766 -101.9836 125° Southeast  Level Estimated
04:48PM 21.3186 -101.8944 125° Southeast  Level Estimated
04:49PM 21.2605 -101.8052 125° Southeast  Level Estimated
04:50PM 21.2024 -101.7161 125° Southeast  Level Estimated
04:51PM 21.1443 -101.6271 125° Southeast  Level Estimated
04:52PM 21.0861 -101.5381 125° Southeast  Level Estimated
04:53PM 21.0278 -101.4492 125° Southeast  Level Estimated
04:54PM 20.9695 -101.3604 125° Southeast  Level Estimated
04:55PM 20.9112 -101.2717 125° Southeast  Level Estimated
04:56PM 20.8528 -101.1830 125° Southeast  Level Estimated
04:57PM 20.7944 -101.0944 125° Southeast  Level Estimated
04:58PM 20.7359 -101.0059 125° Southeast  Level Estimated
04:59PM 20.6774 -100.9174 125° Southeast  Level Estimated
05:00PM 20.6188 -100.8290 125° Southeast  Level Estimated
05:01PM 20.5602 -100.7406 125° Southeast  Level Estimated
05:02PM 20.5015 -100.6524 125° Southeast  Level Estimated
05:03PM 20.4428 -100.5642 125° Southeast  Level Estimated
05:04PM 20.3841 -100.4760 125° Southeast  Level Estimated
05:05PM 20.3253 -100.3880 125° Southeast  Level Estimated
05:06PM 20.2664 -100.3000 125° Southeast  Level Estimated
05:07PM 20.2076 -100.2120 125° Southeast  Level Estimated
05:08PM 20.1486 -100.1242 126° Southeast  Level Estimated
05:09PM 20.0897 -100.0364 126° Southeast  Level Estimated
05:10PM 20.0307 -99.9486 126° Southeast  Level Estimated
05:11PM 19.9716 -99.8610 126° Southeast  Level Estimated
05:12PM 19.9125 -99.7734 126° Southeast  Level Estimated
05:13PM 19.8534 -99.6858 126° Southeast  Level Estimated
05:14PM 19.7942 -99.5984 126° Southeast  Level Estimated
05:15PM 19.7350 -99.5109 126° Southeast  Level Estimated
05:16PM 19.6757 -99.4236 126° Southeast  Level Estimated
05:17PM 19.6164 -99.3363 126° Southeast  Level Estimated
05:18PM 19.5570 -99.2491 126° Southeast  Level Estimated
05:19PM 19.4977 -99.1620 126° Southeast  Level Estimated
05:20PM 19.4382 -99.0749 126° Southeast  Level Estimated
05:21PM 19.4363 -99.0721 126° Southeast  Level Estimated
05:22PM 19.4363 -99.0721 43° Northeast  Level Estimated